Flight Track Log - Related Links

Times and Time Zones

All times are in EDT time to prevent confusion due to time zone crossing. See the EJA122 flight status page for this flight to view local times or setup timezone preferences in your user account.

Time Position Orientation Groundspeed Altitude Reporting Facility
EDT Latitude Longitude Course Direction KTS MPH feet Rate Location/Type
Fri 01:45:02 PM 39.6833 -86.3167 207° Southwest 164 189 2,600  Level Indianapolis TRACON
Fri 01:46:02 PM 39.6667 -86.3833 252° West 228 262 4,900 1,895 Climbing Indianapolis TRACON
Fri 01:46:18 PM 39.6714 -86.3992 291° West 195 224 5,000 2,026 Climbing Indianapolis Center
Fri 01:47:19 PM 39.6556 -86.5069 259° West 247 284 7,500 2,732 Climbing Indianapolis Center
Fri 01:48:21 PM 39.6353 -86.5992 254° West 263 303 10,600 2,274 Climbing Indianapolis Center
Fri 01:49:23 PM 39.6111 -86.7072 254° West 297 342 12,200 1,500 Climbing Indianapolis Center
Fri 01:50:25 PM 39.5839 -86.8275 254° West 337 388 13,700 1,694 Climbing Indianapolis Center
Fri 01:51:27 PM 39.5561 -86.9528 254° West 354 407 15,700 1,854 Climbing Indianapolis Center
Fri 01:52:28 PM 39.5281 -87.0772 254° West 357 411 17,500 1,317 Climbing Indianapolis Center
Fri 01:53:30 PM 39.5011 -87.1983 254° West 352 405 18,400 1,161 Climbing Indianapolis Center
Fri 01:54:32 PM 39.4736 -87.3186 254° West 349 402 19,900 1,548 Climbing Indianapolis Center
Fri 01:55:34 PM 39.4439 -87.4575 255° West 343 395 21,600 1,561 Climbing Indianapolis Center
Fri 01:56:35 PM 39.4183 -87.5761 254° West 340 391 23,100 1,452 Climbing Indianapolis Center
Fri 01:57:38 PM 39.3906 -87.6919 253° West 337 388 24,600 1,452 Climbing Indianapolis Center
Fri 01:58:39 PM 39.3625 -87.8111 253° West 332 382 26,100 1,463 Climbing Indianapolis Center
Fri 01:59:41 PM 39.3339 -87.9239 252° West 329 379 27,600 1,350 Climbing Indianapolis Center
Fri 01:59:59 PM 39.3289 -87.9467 254° West 329 379 27,900 1,367 Climbing Kansas City Center
Fri 02:01:00 PM 39.3025 -88.0569 253° West 323 372 29,400 1,452 Climbing Kansas City Center
Fri 02:02:03 PM 39.2825 -88.1681 257° West 319 367 30,900 1,258 Climbing Kansas City Center
Fri 02:03:04 PM 39.2608 -88.2961 258° West 307 353 32,000 645 Climbing Kansas City Center
Fri 02:04:04 PM 39.2425 -88.4083 258° West 315 362 32,200 528 Climbing Kansas City Center
Fri 02:05:09 PM 39.2225 -88.5211 257° West 321 369 33,100 857 Climbing Kansas City Center
Fri 02:06:10 PM 39.2039 -88.6300 258° West 310 357 34,000 443 Climbing Kansas City Center
Fri 02:07:11 PM 39.1836 -88.7389 257° West 310 357 34,000  Level Kansas City Center
Fri 02:08:14 PM 39.1647 -88.8514 258° West 315 362 34,000  Level Kansas City Center
Fri 02:09:15 PM 39.1394 -88.9797 256° West 328 377 34,000  Level Kansas City Center
Fri 02:10:17 PM 39.1169 -89.1058 257° West 335 386 34,000  Level Kansas City Center
Fri 02:11:20 PM 39.0967 -89.2233 257° West 337 388 34,000  Level Kansas City Center
Fri 02:12:21 PM 39.0739 -89.3511 257° West 340 391 34,000  Level Kansas City Center
Fri 02:13:22 PM 39.0522 -89.4692 257° West 340 391 34,000  Level Kansas City Center
Fri 02:14:25 PM 39.0297 -89.5878 256° West 343 395 34,000  Level Kansas City Center
Fri 02:15:26 PM 39.0067 -89.7161 257° West 344 396 34,000  Level Kansas City Center
Fri 02:16:29 PM 38.9853 -89.8356 257° West 344 396 34,000  Level Kansas City Center
Fri 02:17:30 PM 38.9606 -89.9636 256° West 345 397 34,000  Level Kansas City Center
Fri 02:18:33 PM 38.9381 -90.0783 256° West 345 397 34,000  Level Kansas City Center
Fri 02:19:34 PM 38.9147 -90.1975 256° West 342 394 34,000  Level Kansas City Center
Fri 02:20:37 PM 38.8947 -90.3194 258° West 347 399 34,000  Level Kansas City Center
Fri 02:21:38 PM 38.8719 -90.4425 257° West 353 406 34,000  Level Kansas City Center
Fri 02:22:42 PM 38.8519 -90.5650 258° West 347 399 34,000  Level Kansas City Center
Fri 02:23:43 PM 38.8333 -90.7031 260° West 350 403 34,000  Level Kansas City Center
Fri 02:24:43 PM 38.8169 -90.8247 260° West 351 404 34,000  Level Kansas City Center
Fri 02:25:47 PM 38.8022 -90.9478 261° West 351 404 34,000  Level Kansas City Center
Fri 02:26:47 PM 38.7858 -91.0711 260° West 353 406 34,000  Level Kansas City Center
Fri 02:27:51 PM 38.7658 -91.2189 260° West 353 406 34,000  Level Kansas City Center
Fri 02:28:52 PM 38.7503 -91.3431 261° West 353 406 34,000  Level Kansas City Center
Fri 02:29:52 PM 38.7328 -91.4656 260° West 353 406 34,000  Level Kansas City Center
Fri 02:30:56 PM 38.7164 -91.5892 260° West 353 406 34,000  Level Kansas City Center
Fri 02:31:57 PM 38.6967 -91.7300 260° West 353 406 34,000  Level Kansas City Center
Fri 02:33:01 PM 38.6783 -91.8553 259° West 356 410 34,000  Level Kansas City Center
Fri 02:34:02 PM 38.6608 -91.9806 260° West 357 411 34,000  Level Kansas City Center
Fri 02:35:03 PM 38.6425 -92.1050 259° West 357 411 34,000  Level Kansas City Center
Fri 02:36:07 PM 38.6236 -92.2303 259° West 359 413 34,000  Level Kansas City Center
Fri 02:37:08 PM 38.6053 -92.3572 260° West 361 415 34,000  Level Kansas City Center
Fri 02:38:08 PM 38.5825 -92.5056 259° West 358 412 34,000  Level Kansas City Center
Fri 02:39:12 PM 38.5644 -92.6308 260° West 358 412 34,000  Level Kansas City Center
Fri 02:40:13 PM 38.5461 -92.7564 259° West 359 413 34,000  Level Kansas City Center
Fri 02:41:14 PM 38.5253 -92.8831 258° West 363 418 34,000  Level Kansas City Center
Fri 02:42:17 PM 38.5067 -93.0097 259° West 363 418 34,000  Level Kansas City Center
Fri 02:43:18 PM 38.4872 -93.1361 259° West 364 419 34,000  Level Kansas City Center
Fri 02:44:21 PM 38.4683 -93.2636 259° West 365 420 34,000  Level Kansas City Center
Fri 02:45:22 PM 38.4447 -93.4147 259° West 363 418 34,000  Level Kansas City Center
Fri 02:46:23 PM 38.4247 -93.5422 259° West 366 421 34,000  Level Kansas City Center
Fri 02:47:27 PM 38.4047 -93.6700 259° West 367 422 34,000  Level Kansas City Center
Fri 02:48:27 PM 38.3847 -93.7989 259° West 369 425 34,000  Level Kansas City Center
Fri 02:49:29 PM 38.3647 -93.9278 259° West 370 426 34,000  Level Kansas City Center
Fri 02:50:33 PM 38.3431 -94.0567 258° West 371 427 34,000  Level Kansas City Center
Fri 02:51:33 PM 38.3219 -94.1897 259° West 371 427 34,000  Level Kansas City Center
Fri 02:52:36 PM 38.2989 -94.3322 258° West 369 425 34,000  Level Kansas City Center
Fri 02:53:37 PM 38.2786 -94.4550 258° West 370 426 34,000  Level Kansas City Center
Fri 02:54:41 PM 38.2556 -94.5994 259° West 370 426 34,000  Level Kansas City Center
Fri 02:55:42 PM 38.2361 -94.7222 259° West 370 426 34,000  Level Kansas City Center
Fri 02:56:43 PM 38.2131 -94.8672 259° West 372 428 34,000  Level Kansas City Center
Fri 02:57:46 PM 38.2008 -94.9908 263° West 371 427 34,000  Level Kansas City Center
Fri 02:58:47 PM 38.2017 -95.1406 270° West 379 436 34,000  Level Kansas City Center
Fri 02:59:48 PM 38.2022 -95.2683 270° West 376 433 34,000  Level Kansas City Center
Fri 03:00:52 PM 38.2025 -95.3964 270° West 377 434 34,000  Level Kansas City Center
Fri 03:01:52 PM 38.2036 -95.5458 271° West 376 433 34,000  Level Kansas City Center
Fri 03:02:56 PM 38.2044 -95.6719 271° West 372 428 34,000  Level Kansas City Center
Fri 03:03:57 PM 38.2044 -95.8189 270° West 372 428 34,000  Level Kansas City Center
Fri 03:05:01 PM 38.2044 -95.9453 270° West 373 429 34,000 -484 Level Kansas City Center
Fri 03:06:01 PM 38.2042 -96.0942 270° West 376 433 33,000 -1,537 Descending Kansas City Center
Fri 03:07:02 PM 38.2039 -96.2281 270° West 387 445 30,900 -2,304 Descending Kansas City Center
Fri 03:08:06 PM 38.2039 -96.3819 270° West 394 453 28,200 -2,362 Descending Kansas City Center
Fri 03:09:09 PM 38.2025 -96.5075 269° West 394 453 25,900 -2,468 Descending Kansas City Center
Fri 03:10:10 PM 38.2028 -96.6439 270° West 388 447 23,100 -3,429 Descending Kansas City Center
Fri 03:11:22 PM 38.1986 -96.8267 268° West 379 436 18,300 -3,743 Descending Kansas City Center
Fri 03:11:59 PM 38.1917 -96.9053 264° West 358 412 16,300 -3,115 Descending Kansas City Center
Fri 03:12:14 PM 38.1856 -96.9283 251° West 348 400 15,600 -3,313 Descending Kansas City Center
Fri 03:13:06 PM 38.1342 -97.0025 229° Southwest 313 360 12,600 -2,804 Descending Kansas City Center
Fri 03:14:01 PM 38.0669 -97.0425 205° Southwest 279 321 10,600 -1,973 Descending Kansas City Center
Fri 03:14:19 PM 38.0525 -97.0497 201° Southwest 285 328 10,200 -885 Descending Kansas City Center
Fri 03:15:02 PM 38.0222 -97.1003 233° Southwest 222 255 9,700 -689 Descending Kansas City Center
Fri 03:15:20 PM 38.0164 -97.1133 240° Southwest 224 258 9,500 -1,100 Descending Kansas City Center
Fri 03:16:02 PM 37.9911 -97.1475 227° Southwest 154 177 8,600 -1,377 Descending Kansas City Center
Fri 03:16:21 PM 37.9867 -97.1581 242° Southwest 169 194 8,100 -2,060 Descending Kansas City Center
Fri 03:17:09 PM 37.9450 -97.1894 211° Southwest 185 213 6,300 -1,905 Descending Kansas City Center
Fri 03:17:24 PM 37.9442 -97.1919 247° West 181 208 6,100 -1,881 Descending Kansas City Center
Fri 03:18:16 PM 37.8889 -97.1983 185° South 191 220 4,200 -1,475 Descending Kansas City Center
Fri 03:19:22 PM 37.8417 -97.2083 189° South 155 178 3,200 -835 Descending Kansas City Center
Fri 03:20:11 PM 37.8144 -97.2100 183° South 111 128 2,600 -686 Descending Kansas City Center
Fri 03:20:32 PM 37.8058 -97.2125 193° South 141 162 2,400 -222 Descending Kansas City Center
Fri 03:21:32 PM 37.7758 -97.2186 189° South 135 155 2,300 -100 Descending Kansas City Center
Fri 03:23:00 PM 37.7476 -97.2211 202° Southwest  Level Estimated
Fri 03:30:00 PM 37.7476 -97.2211 202° Southwest  Level Estimated
Fri 03:31:00 PM 37.7476 -97.2211 202° Southwest  Level Estimated

Login

Don't have an account? Register now (free) for customized features, flight alerts, and more!